Skip Navigation Links
NOAA logo - Click to go to the NOAA homepage
NOAA's National Weather Service
Alaska Aviation Weather Unit
  NWS logo - Click to go to the NWS homepage
Left Navbar Graphic     21 AKDT = 05 GMT

   
NOAA is celebrating 200 years of science, service, and stewardship. Visit the NOAA 200th celebration Web site to learn more.
USA.gov is the U.S. Government's official Web portal to all Federal, state and local government Web resources and services.
Facebook
NWS on Facebook

Important Change Regarding the AAWU Web Presence

 

Over the last several months, the AAWU has been working to navigate its webpages to a nationally supported server. Security, as well as other needs, have necessitated the change.  In the process, we have made an effort to enhance the functionality of our website, as well as some of our products. As of June 27, 2017, aawu.arh.noaa.gov will be discontinued. The new AAWU web address is weather.gov/aawu. It is now live and will run in-parallel with the old site until it is discontinued. Please send any feedback or questions regarding the new webpages to nws.ar.aawu.webauthors@noaa.gov.  Thank you for your patience during this time of transition.
AAWU Home :: Display TAF Add Bookmark
SPECI PAPB 252316Z AUTO 13018KT 2 1/2SM -RA BR OVC003 09/08 A2945 RMK
     AO2 P0000 T00890083 TSNO=

PAPB 252340Z AUTO 14014KT 3SM -RA BR OVC003 09/08 A2945 RMK AO2
     P0000 T00890083 TSNO=

SPECI PAPB 252349Z AUTO 14016G21KT 6SM BR OVC004 09/08 A2944 RMK AO2
     RAE42 P0001 TSNO=

METAR PAPB 252353Z AUTO 14016G21KT 6SM BR OVC004 09/08 A2944 RMK AO2
     RAE42 SLP957 P0001 60001 T00890083 10094 20083 56011 TSNO=

SPECI PAPB 260009Z AUTO 15014G22KT 1 3/4SM BR OVC004 09/08 A2944 RMK AO2
     T00890083 TSNO=

SPECI PAPB 260021Z AUTO 16015KT 1 1/2SM BR OVC003 09/08 A2944 RMK
 AO2 T00890078 TSNO=

SPECI PAPB 260046Z AUTO 16018KT 2 1/2SM BR OVC002 09/08 A2943 RMK AO2
     T00890083 TSNO=

METAR PAPB 260053Z AUTO 17016KT 2SM BR OVC002 08/08 A2943 RMK AO2
 SLP954 T00830078 TSNO=

SPECI PAPB 260108Z AUTO 18016KT 4SM BR OVC002 08/08 A2943 RMK AO2 CIG
     002V005 T00830078 TSNO=

PAPB 260118Z AUTO 18017KT 2 1/2SM BR OVC002 08/08 A2943 RMK AO2
     T00830078 TSNO=

SPECI PAPB 260126Z AUTO 18016G22KT 3SM BR OVC003 08/08 A2943 RMK AO2
     T00830078 TSNO=

PAPB 260153Z AUTO 17017G22KT 2SM BR OVC002 08/08 A2942 RMK AO2 VIS
     1 1/2V4 SLP952 T00830078 TSNO=

PAPB 260158Z AUTO 18019G23KT 1SM BR OVC002 08/08 A2942 RMK AO2
     T00830078 TSNO=

PAPB 260206Z AUTO 18015KT 1/2SM FG VV002 08/08 A2942 RMK AO2
     T00830078 TSNO=

METAR PAPB 260253Z AUTO 19013KT 3/4SM BR VV002 08/08 A2943 RMK AO2
     SLP952 T00780078 55006 TSNO=

PAPB 260318Z AUTO 19014KT 1 1/4SM BR OVC002 08/08 A2942 RMK AO2
     T00780078 TSNO=

SPECI PAPB 260324Z AUTO 19013KT 3SM BR OVC002 08/08 A2942 RMK AO2
     T00830078 TSNO=

METAR PAPB 260353Z AUTO 19013KT 1 3/4SM BR OVC002 08/07 A2943 RMK AO2
     SLP953 T00780072 TSNO=

SPECI PAPB 260417Z AUTO 20011KT 3/4SM BR VV002 08/07 A2943 RMK AO2
     T00780072 TSNO=

METAR PAPB 260453Z AUTO 21011KT 3/4SM -RA BR VV002 07/07 A2944 RMK AO2
     RAB34 SLP956 P0000 T00720072 TSNO=

SPECI PAPB 260455Z AUTO 21011KT 1 1/4SM -RA BR OVC002 07/07 A2944 RMK
     AO2 P0000 T00720072 TSNO=

PAPB 260458Z AUTO 21010KT 3SM BR OVC002 07/07 A2944 RMK AO2 RAE56
     P0000 T00720072 TSNO=

PAPB 260510Z AUTO 22012KT 1 1/2SM BR OVC002 07/07 A2944 RMK AO2
     RAE0456 P0000 T00720067 TSNO=

PAPB 260514Z AUTO 22011KT 3/4SM BR VV003 07/07 A2944 RMK AO2
     RAE0456 P0000 T00720072 TSNO=


NOAA's National Weather Service
Alaska Aviation Weather Unit
6930 Sand Lake Road
Anchorage, AK 99502-1845
Disclaimer
Credits
Glossary
Privacy Policy
About Us
Career Opportunities
Contact AAWU Internet Services Site last modified: April, 17th 2012